Time;durP1;ratioP1;P1;durP2;ratioP2;P2;SDS_P1;SDS_P2;PMS_P1;PMS_P2;Temp;Humidity;BMP_temperature;BMP_pressure;BME280_temperature;BME280_humidity;BME280_pressure;Samples;Min_cycle;Max_cycle;Signal;HPM_P1;HPM_P2
2022/07/21 00:02:04;;;;;;;9.77;7.27;;;;;;;19.92;83.89;101627.50;5032087;28;20036;-88
2022/07/21 00:04:30;;;;;;;10.83;7.10;;;;;;;19.95;83.60;101628.81;5030038;28;20028;-88
2022/07/21 00:06:55;;;;;;;8.83;7.50;;;;;;;19.82;84.33;101622.22;5032543;28;20288;-87
2022/07/21 00:09:20;;;;;;;7.83;7.03;;;;;;;19.77;84.78;101625.06;5033076;28;20028;-88
2022/07/21 00:11:46;;;;;;;9.07;6.57;;;;;;;19.77;84.65;101625.84;5032150;28;20030;-88
2022/07/21 00:14:12;;;;;;;8.10;6.68;;;;;;;19.67;84.99;101617.91;5032455;28;20032;-89
2022/07/21 00:16:39;;;;;;;9.23;7.07;;;;;;;19.76;83.99;101621.53;5032200;28;20038;-89
2022/07/21 00:19:04;;;;;;;11.20;7.30;;;;;;;19.64;84.80;101615.78;5004705;28;20451;-89
2022/07/21 00:21:29;;;;;;;10.35;7.72;;;;;;;19.68;84.52;101625.75;5029982;28;20096;-89
2022/07/21 00:23:56;;;;;;;10.13;7.70;;;;;;;19.67;84.77;101634.22;5032294;28;20025;-89
2022/07/21 00:26:21;;;;;;;8.82;7.28;;;;;;;19.67;84.77;101634.22;5032721;28;20555;-89
2022/07/21 00:28:48;;;;;;;9.50;8.07;;;;;;;19.66;84.85;101638.81;5031033;28;20033;-89
2022/07/21 00:31:13;;;;;;;8.82;7.90;;;;;;;19.65;84.56;101630.97;5030918;28;20048;-89
2022/07/21 00:33:39;;;;;;;9.10;7.83;;;;;;;19.62;84.84;101626.97;5032551;28;20029;-89
2022/07/21 00:36:04;;;;;;;11.50;7.80;;;;;;;19.60;84.86;101631.06;5031653;28;20108;-89
2022/07/21 00:38:29;;;;;;;11.25;7.55;;;;;;;19.62;84.25;101632.41;5029800;28;20424;-89
2022/07/21 00:40:55;;;;;;;10.17;7.67;;;;;;;19.59;85.65;101641.16;5013933;28;20373;-89
2022/07/21 00:43:20;;;;;;;9.50;8.50;;;;;;;19.49;86.01;101622.28;5032280;28;20029;-90
2022/07/21 00:45:46;;;;;;;10.23;7.88;;;;;;;19.50;85.19;101635.59;5032356;28;20392;-89
2022/07/21 00:48:13;;;;;;;11.13;8.60;;;;;;;19.41;86.33;101636.59;5031057;28;20029;-89
2022/07/21 00:50:38;;;;;;;10.63;8.77;;;;;;;19.44;85.91;101625.91;5031654;28;20037;-89
2022/07/21 00:53:04;;;;;;;11.17;8.53;;;;;;;19.42;86.18;101625.41;5031802;28;20188;-89
2022/07/21 00:55:29;;;;;;;9.82;8.23;;;;;;;19.41;85.84;101629.22;5012833;28;20036;-88
2022/07/21 00:57:56;;;;;;;12.27;8.83;;;;;;;19.38;86.25;101629.81;5032271;28;20511;-90
2022/07/21 01:00:25;;;;;;;12.18;8.35;;;;;;;19.28;86.60;101624.56;5028289;28;20429;-89
2022/07/21 01:02:50;;;;;;;11.70;8.18;;;;;;;19.30;87.05;101631.31;5032303;28;20025;-89
2022/07/21 01:05:17;;;;;;;12.47;8.63;;;;;;;19.29;86.39;101628.91;5031833;28;20044;-89
2022/07/21 01:07:48;;;;;;;13.55;8.20;;;;;;;19.30;86.84;101617.72;5013940;28;20481;-89
2022/07/21 01:10:14;;;;;;;12.10;8.82;;;;;;;19.21;86.99;101601.28;5028152;28;20029;-89
2022/07/21 01:12:40;;;;;;;11.73;9.07;;;;;;;19.19;86.64;101608.16;5031687;28;20404;-89
2022/07/21 01:15:08;;;;;;;11.23;9.02;;;;;;;19.14;87.60;101611.75;5031340;28;20025;-89
2022/07/21 01:17:34;;;;;;;12.32;9.52;;;;;;;19.08;87.19;101612.94;5031252;28;20168;-89
2022/07/21 01:20:05;;;;;;;11.57;9.77;;;;;;;18.99;87.97;101603.88;5029918;28;20512;-89
2022/07/21 01:22:33;;;;;;;13.10;9.38;;;;;;;18.99;87.99;101598.44;5031810;28;20503;-89
2022/07/21 01:24:58;;;;;;;12.20;9.95;;;;;;;18.97;88.48;101600.63;5031296;28;20025;-89
2022/07/21 01:27:26;;;;;;;13.27;9.13;;;;;;;18.92;88.75;101604.19;5029824;28;20028;-89
2022/07/21 01:29:51;;;;;;;14.60;10.27;;;;;;;18.94;89.16;101606.63;5028404;28;20117;-88
2022/07/21 01:32:16;;;;;;;12.57;9.30;;;;;;;18.96;88.50;101604.44;5030864;28;20104;-89
2022/07/21 01:34:42;;;;;;;12.07;10.03;;;;;;;18.94;89.83;101609.34;5029288;28;20018;-89
2022/07/21 01:37:07;;;;;;;13.70;9.68;;;;;;;18.98;89.34;101613.09;5013755;28;20546;-88
2022/07/21 01:42:17;;;;;;;14.70;9.50;;;;;;;19.09;88.12;101597.44;5028363;28;20558;-89
2022/07/21 01:44:42;;;;;;;13.87;9.80;;;;;;;19.27;87.56;101606.66;5029124;28;20308;-90
2022/07/21 01:47:08;;;;;;;11.90;9.60;;;;;;;19.30;86.88;101601.41;5037592;23;20135;-90
2022/07/21 01:49:33;;;;;;;11.80;9.90;;;;;;;19.36;87.59;101607.56;5009385;28;20038;-89
2022/07/21 01:51:59;;;;;;;12.73;10.43;;;;;;;19.37;86.88;101604.56;5023603;28;20060;-89
2022/07/21 01:54:27;;;;;;;13.48;10.38;;;;;;;19.32;86.78;101601.94;5012941;28;20057;-89
2022/07/21 01:56:52;;;;;;;13.52;10.32;;;;;;;19.20;88.41;101602.41;5030522;28;20083;-90
2022/07/21 01:59:18;;;;;;;12.33;9.57;;;;;;;19.22;88.32;101605.63;5012264;28;20030;-89
2022/07/21 02:01:44;;;;;;;12.77;10.10;;;;;;;19.20;87.81;101599.69;5014438;28;20397;-89
2022/07/21 02:04:09;;;;;;;14.30;10.27;;;;;;;19.20;87.60;101599.69;5010720;28;20050;-89
2022/07/21 02:06:34;;;;;;;14.77;10.17;;;;;;;19.21;88.03;101605.94;5011361;28;20059;-89
2022/07/21 02:09:00;;;;;;;15.60;10.07;;;;;;;19.21;88.11;101612.16;5010849;28;20078;-88
2022/07/21 02:11:26;;;;;;;13.83;9.90;;;;;;;19.21;88.15;101617.59;5010648;28;20304;-88
2022/07/21 02:13:51;;;;;;;15.00;10.10;;;;;;;19.20;88.46;101618.69;5011202;28;20025;-89
2022/07/21 02:16:16;;;;;;;14.00;10.18;;;;;;;19.21;87.90;101609.44;5010199;28;20030;-89
2022/07/21 02:18:42;;;;;;;14.67;10.60;;;;;;;19.23;88.08;101603.72;5010172;28;20029;-89
2022/07/21 02:21:07;;;;;;;16.37;11.03;;;;;;;19.12;88.42;101605.81;5009998;28;20044;-89
2022/07/21 02:23:33;;;;;;;13.18;10.15;;;;;;;19.14;88.59;101602.78;5011936;28;20073;-89
2022/07/21 02:25:59;;;;;;;14.30;10.63;;;;;;;19.10;88.49;101594.44;5016268;28;20042;-89
2022/07/21 02:28:26;;;;;;;12.68;10.80;;;;;;;19.05;88.72;101603.47;5022942;28;20242;-88
2022/07/21 02:30:52;;;;;;;12.63;10.90;;;;;;;18.98;88.27;101594.88;5012279;28;20151;-89
2022/07/21 02:33:17;;;;;;;15.32;11.45;;;;;;;18.93;88.63;101594.94;5011739;28;20151;-90
2022/07/21 02:35:44;;;;;;;15.63;11.57;;;;;;;18.92;89.41;101593.31;5012743;28;20034;-88
2022/07/21 02:38:10;;;;;;;17.10;11.45;;;;;;;18.95;89.04;101598.19;5011978;28;20025;-89
2022/07/21 02:40:36;;;;;;;15.70;11.70;;;;;;;18.95;89.74;101598.19;5009135;28;20180;-90
2022/07/21 02:43:01;;;;;;;16.63;11.57;;;;;;;18.96;89.56;101599.03;5021071;28;20065;-90
2022/07/21 02:45:27;;;;;;;17.90;12.17;;;;;;;18.93;89.52;101594.94;5030288;28;20025;-90
2022/07/21 02:48:01;;;;;;;18.55;11.88;;;;;;;19.00;88.59;101592.69;5022839;28;20095;-88
2022/07/21 02:50:30;;;;;;;17.40;12.33;;;;;;;18.92;89.37;101587.88;5011520;28;20037;-89
2022/07/21 02:52:57;;;;;;;18.95;12.07;;;;;;;18.95;89.67;101591.97;5007754;28;20048;-88
2022/07/21 02:55:24;;;;;;;19.52;12.48;;;;;;;18.97;90.01;101589.78;5025546;28;20013;-89
2022/07/21 02:57:49;;;;;;;17.50;12.60;;;;;;;19.00;90.24;101589.16;5026807;28;20544;-88
2022/07/21 03:00:15;;;;;;;16.53;12.30;;;;;;;19.04;89.72;101596.44;5014733;28;20053;-89
2022/07/21 03:02:41;;;;;;;16.80;11.55;;;;;;;19.11;88.47;101606.91;5012831;28;20511;-89
2022/07/21 03:05:07;;;;;;;15.87;11.70;;;;;;;19.17;88.51;101603.00;4999245;28;20125;-89
2022/07/21 03:07:35;;;;;;;16.05;12.65;;;;;;;19.16;88.71;101598.69;5031778;28;20026;-89
2022/07/21 03:10:00;;;;;;;15.75;12.70;;;;;;;19.14;88.63;101590.03;5013600;28;20030;-89
2022/07/21 03:12:25;;;;;;;18.27;13.00;;;;;;;19.04;89.11;101582.03;5012526;28;20039;-88
2022/07/21 03:14:51;;;;;;;18.13;13.00;;;;;;;19.04;89.26;101580.13;5024280;28;20502;-89
2022/07/21 03:17:16;;;;;;;18.27;13.63;;;;;;;19.08;88.74;101590.41;5028342;28;20038;-89
2022/07/21 03:19:41;;;;;;;17.58;12.65;;;;;;;19.07;89.13;101589.59;5013115;28;20026;-89
2022/07/21 03:22:06;;;;;;;17.83;12.87;;;;;;;19.10;88.60;101583.56;5017154;28;20117;-89
2022/07/21 03:24:32;;;;;;;18.47;13.07;;;;;;;19.15;88.35;101593.53;5030859;28;20030;-89
2022/07/21 03:26:57;;;;;;;18.10;14.07;;;;;;;19.09;89.43;101586.56;5033719;28;20021;-89
2022/07/21 03:29:23;;;;;;;20.67;13.02;;;;;;;19.08;89.86;101588.50;5018420;28;20026;-89
2022/07/21 03:31:48;;;;;;;20.00;13.57;;;;;;;19.06;88.66;101583.38;5013745;28;20025;-89
2022/07/21 03:34:13;;;;;;;19.03;13.30;;;;;;;19.12;88.47;101586.78;5011465;28;20033;-89
2022/07/21 03:36:39;;;;;;;16.70;12.10;;;;;;;19.11;87.99;101587.06;5012103;28;20709;-90
2022/07/21 03:39:04;;;;;;;16.03;12.50;;;;;;;19.08;88.80;101593.13;5014496;28;20026;-90
2022/07/21 03:41:30;;;;;;;17.80;12.93;;;;;;;19.10;88.34;101578.13;5014356;28;20293;-90
2022/07/21 03:43:55;;;;;;;20.17;12.67;;;;;;;19.10;88.88;101588.19;5013158;28;20429;-90
2022/07/21 03:46:20;;;;;;;17.07;12.23;;;;;;;19.06;88.62;101587.97;5027746;28;20041;-88
2022/07/21 03:48:46;;;;;;;20.33;13.33;;;;;;;19.05;88.47;101592.63;5005474;28;20040;-88
2022/07/21 03:51:11;;;;;;;17.20;13.50;;;;;;;19.02;89.13;101593.19;4997842;28;20045;-88
2022/07/21 03:53:36;;;;;;;18.07;13.87;;;;;;;18.92;89.93;101593.31;5011775;28;20296;-88
2022/07/21 03:56:01;;;;;;;16.33;13.07;;;;;;;18.93;89.56;101600.38;5012716;28;20045;-88
2022/07/21 03:58:27;;;;;;;18.57;12.87;;;;;;;19.00;89.01;101608.16;5021388;28;20072;-89
2022/07/21 04:00:52;;;;;;;21.50;13.20;;;;;;;18.96;89.22;101613.38;4995828;28;20086;-87
2022/07/21 04:03:17;;;;;;;25.03;12.87;;;;;;;18.99;89.67;101603.88;5012886;28;20026;-87
2022/07/21 04:05:43;;;;;;;18.00;11.80;;;;;;;19.05;88.67;101613.53;5012452;28;20691;-86
2022/07/21 04:08:10;;;;;;;16.40;11.27;;;;;;;19.05;88.22;101608.91;5022361;28;20036;-85
2022/07/21 04:10:38;;;;;;;17.48;12.30;;;;;;;19.04;88.17;101606.47;5009297;28;20030;-87
2022/07/21 04:13:06;;;;;;;20.00;12.05;;;;;;;19.00;88.63;101603.56;5012144;28;20506;-86
2022/07/21 04:15:32;;;;;;;18.20;12.32;;;;;;;19.01;89.15;101609.78;5012392;28;20120;-86
2022/07/21 04:17:57;;;;;;;19.33;11.53;;;;;;;19.09;88.07;101611.84;5013179;28;20039;-85
2022/07/21 04:20:23;;;;;;;18.53;12.00;;;;;;;19.07;88.62;101616.75;5012780;28;20364;-88
2022/07/21 04:22:49;;;;;;;16.97;11.30;;;;;;;19.05;88.59;101597.22;5012743;28;20481;-86
2022/07/21 04:25:16;;;;;;;22.88;11.75;;;;;;;18.95;89.79;101611.78;5012817;28;20038;-87
2022/07/21 04:27:42;;;;;;;19.00;11.77;;;;;;;18.78;90.66;101601.44;5010413;28;20101;-88
2022/07/21 04:30:10;;;;;;;16.27;11.70;;;;;;;18.64;91.73;101600.53;5010318;28;20409;-88
2022/07/21 04:32:35;;;;;;;19.60;11.95;;;;;;;18.52;93.80;101593.66;4992983;28;20022;-88
2022/07/21 04:35:01;;;;;;;21.53;12.27;;;;;;;18.50;93.82;101595.06;4992544;28;20114;-87
2022/07/21 04:37:26;;;;;;;24.80;13.23;;;;;;;18.44;96.77;101599.75;4993100;28;20626;-88
2022/07/21 04:39:52;;;;;;;25.35;13.15;;;;;;;18.27;97.55;101594.81;5008886;28;20091;-89
2022/07/21 04:42:17;;;;;;;26.37;13.47;;;;;;;18.05;100.00;101598.06;5012076;28;20022;-87
2022/07/21 04:44:42;;;;;;;23.13;13.70;;;;;;;17.86;100.00;101591.47;5011316;28;20088;-88
2022/07/21 04:47:08;;;;;;;21.13;13.57;;;;;;;17.77;100.00;101590.50;5003263;28;20077;-90
2022/07/21 04:49:33;;;;;;;22.27;13.43;;;;;;;17.74;100.00;101593.78;5015177;28;20026;-89
2022/07/21 04:51:58;;;;;;;27.27;14.00;;;;;;;17.69;100.00;101597.34;5009543;28;20030;-88
2022/07/21 04:54:24;;;;;;;18.05;12.93;;;;;;;17.65;100.00;101600.91;5011349;28;20691;-88
2022/07/21 04:56:49;;;;;;;22.10;14.43;;;;;;;17.63;100.00;101608.50;5018773;28;20034;-88
2022/07/21 04:59:14;;;;;;;22.80;13.80;;;;;;;17.63;100.00;101609.34;5016228;28;20088;-88
2022/07/21 05:01:40;;;;;;;21.30;13.30;;;;;;;17.62;100.00;101605.00;5012871;28;20048;-88
2022/07/21 05:04:06;;;;;;;23.45;13.63;;;;;;;17.62;100.00;101585.25;5023439;28;20040;-89
2022/07/21 05:06:31;;;;;;;22.93;13.70;;;;;;;17.60;100.00;101596.34;5024276;28;20025;-89
2022/07/21 05:08:57;;;;;;;20.70;12.50;;;;;;;17.56;100.00;101603.44;5023377;28;20636;-89
2022/07/21 05:11:23;;;;;;;23.43;13.10;;;;;;;17.50;100.00;101599.19;5024279;28;20029;-89
2022/07/21 05:13:48;;;;;;;21.38;13.82;;;;;;;17.54;100.00;101606.44;5021295;28;20021;-89
2022/07/21 05:16:13;;;;;;;19.43;13.40;;;;;;;17.57;100.00;101605.06;5012038;28;20029;-88
2022/07/21 05:18:38;;;;;;;21.70;12.70;;;;;;;17.69;100.00;101594.66;5010976;28;20389;-91
2022/07/21 05:21:04;;;;;;;19.40;13.10;;;;;;;17.68;100.00;101606.56;5010387;28;20033;-89
2022/07/21 05:23:29;;;;;;;19.42;12.50;;;;;;;17.74;100.00;101592.94;5007669;28;20038;-91
2022/07/21 05:25:54;;;;;;;23.50;13.53;;;;;;;17.75;100.00;101597.28;4995146;28;20065;-92
2022/07/21 05:28:20;;;;;;;18.93;13.07;;;;;;;17.74;100.00;101599.19;5027051;28;20030;-96
2022/07/21 05:30:45;;;;;;;23.63;13.17;;;;;;;17.75;100.00;101600.00;5032099;28;20072;-95
2022/07/21 05:33:10;;;;;;;21.10;12.17;;;;;;;17.85;100.00;101599.91;5029286;28;20037;-92
2022/07/21 05:35:36;;;;;;;18.93;12.80;;;;;;;17.90;100.00;101602.53;5020861;28;20057;-92
2022/07/21 05:38:01;;;;;;;22.07;13.03;;;;;;;17.96;100.00;101595.16;5019655;28;20332;-95
2022/07/21 05:40:27;;;;;;;17.53;11.27;;;;;;;18.06;100.00;101602.41;5010459;28;20030;-94
2022/07/21 05:42:52;;;;;;;24.10;12.00;;;;;;;18.06;100.00;101597.78;5011384;28;20026;-93
2022/07/21 05:45:18;;;;;;;22.40;11.87;;;;;;;18.15;100.00;101593.34;5009771;28;20026;-93
2022/07/21 05:47:43;;;;;;;20.53;11.70;;;;;;;18.22;100.00;101595.69;5004660;28;20045;-94
2022/07/21 05:50:11;;;;;;;20.30;12.07;;;;;;;18.21;100.00;101604.91;4990304;28;20038;-93
2022/07/21 05:52:36;;;;;;;25.67;11.20;;;;;;;18.23;100.00;101604.63;4993000;28;20029;-93
2022/07/21 05:55:02;;;;;;;23.30;12.15;;;;;;;18.26;100.00;101596.69;4989514;28;20023;-92
2022/07/21 05:57:27;;;;;;;17.20;11.93;;;;;;;18.36;100.00;101595.75;4984330;28;20105;-92
2022/07/21 05:59:53;;;;;;;23.60;12.80;;;;;;;18.39;100.00;101597.88;4990559;28;20099;-95
2022/07/21 06:02:18;;;;;;;18.00;12.13;;;;;;;18.44;100.00;101600.53;4991175;28;20035;-95
2022/07/21 06:04:43;;;;;;;20.98;12.27;;;;;;;18.54;100.00;101601.47;4985322;28;20070;-94
2022/07/21 06:07:09;;;;;;;23.47;11.90;;;;;;;18.66;100.00;101609.19;4970838;28;20567;-94
2022/07/21 06:09:34;;;;;;;23.03;12.90;;;;;;;18.73;100.00;101602.28;4989456;28;20065;-91
2022/07/21 06:11:59;;;;;;;20.07;11.90;;;;;;;18.91;99.83;101606.09;4991980;28;20066;-91
2022/07/21 06:14:25;;;;;;;25.07;12.30;;;;;;;18.97;99.28;101600.63;4987048;28;20025;-89
2022/07/21 06:16:50;;;;;;;25.83;14.90;;;;;;;18.91;98.32;101603.38;4990056;28;20474;-91
2022/07/21 06:19:16;;;;;;;27.70;15.50;;;;;;;18.91;97.59;101611.53;4986776;28;20054;-90
2022/07/21 06:21:41;;;;;;;29.23;14.97;;;;;;;18.94;98.24;101601.97;4988718;28;20030;-87
2022/07/21 06:24:07;;;;;;;26.70;14.90;;;;;;;19.08;97.89;101609.44;4990381;28;20072;-87
2022/07/21 06:26:33;;;;;;;26.50;15.17;;;;;;;19.40;97.50;101602.34;4986435;28;20038;-86
2022/07/21 06:28:58;;;;;;;29.60;16.23;;;;;;;19.88;94.53;101599.31;4990510;28;20281;-90
2022/07/21 06:31:23;;;;;;;29.77;15.00;;;;;;;20.38;91.56;101606.72;4994314;28;20474;-88
2022/07/21 06:33:49;;;;;;;28.70;16.00;;;;;;;20.71;89.87;101603.00;4998454;28;20027;-89
2022/07/21 06:36:14;;;;;;;31.03;16.80;;;;;;;20.87;87.79;101598.00;5000706;28;20029;-86
2022/07/21 06:38:39;;;;;;;32.88;17.98;;;;;;;21.00;87.06;101594.41;4990383;28;20567;-86
2022/07/21 06:41:06;;;;;;;28.53;16.77;;;;;;;21.27;86.34;101600.84;4992242;28;20516;-84
2022/07/21 06:43:32;;;;;;;28.70;16.83;;;;;;;21.59;84.49;101609.81;4971752;28;20386;-85
2022/07/21 06:45:58;;;;;;;30.80;17.13;;;;;;;21.82;82.78;101606.25;4989987;28;20030;-84
2022/07/21 06:48:24;;;;;;;27.90;17.40;;;;;;;22.04;80.44;101610.81;4992513;28;20026;-85
2022/07/21 06:50:50;;;;;;;30.95;17.02;;;;;;;22.26;80.66;101618.06;4991870;28;20058;-84
2022/07/21 06:53:15;;;;;;;27.85;16.08;;;;;;;22.33;79.00;101610.22;5008307;28;20053;-87
2022/07/21 06:55:41;;;;;;;28.47;16.20;;;;;;;22.41;79.00;101610.53;4993677;28;20029;-85
2022/07/21 06:58:11;;;;;;;26.13;14.53;;;;;;;22.66;79.31;101620.72;4994553;28;20026;-85
2022/07/21 07:00:37;;;;;;;23.87;15.07;;;;;;;22.95;76.30;101632.09;4994139;28;20294;-86
2022/07/21 07:03:02;;;;;;;27.13;15.68;;;;;;;22.84;75.36;101626.94;4993319;28;20378;-85
2022/07/21 07:05:29;;;;;;;23.50;13.87;;;;;;;22.72;75.66;101632.28;4994356;28;20474;-85
2022/07/21 07:07:55;;;;;;;30.23;15.90;;;;;;;22.53;76.83;101633.38;4994543;28;20057;-84
2022/07/21 07:10:20;;;;;;;22.77;15.23;;;;;;;22.28;77.55;101642.28;4992632;28;20474;-85
2022/07/21 07:12:46;;;;;;;27.13;14.73;;;;;;;22.29;77.18;101639.28;4994487;28;20080;-87
2022/07/21 07:15:11;;;;;;;28.37;16.27;;;;;;;22.16;77.68;101648.41;4994072;28;20113;-87
2022/07/21 07:17:37;;;;;;;26.95;14.85;;;;;;;22.17;78.62;101637.16;4991954;28;20046;-87
2022/07/21 07:20:05;;;;;;;28.50;14.85;;;;;;;22.07;77.91;101637.47;4990791;28;20385;-84
2022/07/21 07:22:30;;;;;;;25.83;14.97;;;;;;;21.80;78.83;101631.09;4994131;28;20026;-85
2022/07/21 07:24:56;;;;;;;24.60;15.07;;;;;;;21.75;79.41;101625.78;4993089;28;20041;-85
2022/07/21 07:27:21;;;;;;;28.50;14.80;;;;;;;21.77;79.87;101621.63;4990281;28;21357;-84
2022/07/21 07:29:46;;;;;;;26.50;14.57;;;;;;;21.91;80.10;101626.16;4995249;28;20023;-84
2022/07/21 07:32:12;;;;;;;23.50;13.77;;;;;;;21.99;78.34;101625.41;4994023;28;20092;-85
2022/07/21 07:34:37;;;;;;;25.60;14.40;;;;;;;21.91;78.80;101626.94;4999119;28;20026;-88
2022/07/21 07:37:03;;;;;;;24.73;15.10;;;;;;;21.98;79.22;101626.53;4978404;28;20030;-87
2022/07/21 07:39:28;;;;;;;23.00;14.20;;;;;;;22.03;77.92;101631.03;4974542;28;20037;-86
2022/07/21 07:41:55;;;;;;;25.40;14.37;;;;;;;22.04;78.60;101627.16;4982107;28;20117;-87
2022/07/21 07:44:20;;;;;;;26.67;14.38;;;;;;;22.03;78.52;101633.75;4985539;28;20564;-86
2022/07/21 07:46:46;;;;;;;23.60;14.88;;;;;;;21.82;79.22;101631.59;4990704;28;20034;-86
2022/07/21 07:49:12;;;;;;;24.48;13.75;;;;;;;21.89;78.69;101621.03;4991688;28;20205;-86
2022/07/21 07:51:37;;;;;;;25.10;13.27;;;;;;;21.83;79.38;101637.84;5012004;28;20483;-87
2022/07/21 07:54:03;;;;;;;24.80;13.57;;;;;;;21.12;83.97;101633.91;5011480;28;20056;-85
2022/07/21 07:56:29;;;;;;;23.08;12.80;;;;;;;20.47;87.82;101638.63;5011926;28;20029;-85
2022/07/21 07:58:54;;;;;;;21.57;13.20;;;;;;;19.98;93.04;101636.38;5012886;28;20068;-86
2022/07/21 08:01:19;;;;;;;19.50;10.80;;;;;;;19.67;95.27;101635.00;5010899;28;20037;-86
2022/07/21 08:03:45;;;;;;;15.83;9.20;;;;;;;19.51;98.42;101636.38;5012492;28;20414;-90
2022/07/21 08:06:10;;;;;;;14.63;10.00;;;;;;;19.29;98.91;101637.06;5010427;28;20084;-89
2022/07/21 08:08:36;;;;;;;15.43;9.80;;;;;;;19.15;100.00;101642.44;5012423;28;20032;-90
2022/07/21 08:11:03;;;;;;;13.63;9.02;;;;;;;18.99;100.00;101642.66;5013613;28;20030;-90
2022/07/21 08:13:28;;;;;;;11.30;9.07;;;;;;;18.92;100.00;101636.75;5012459;28;20516;-90
2022/07/21 08:15:53;;;;;;;14.23;9.77;;;;;;;18.79;100.00;101638.34;5012099;28;20037;-90
2022/07/21 08:18:22;;;;;;;14.60;9.40;;;;;;;18.59;100.00;101639.41;5013410;28;20034;-90
2022/07/21 08:20:48;;;;;;;12.20;8.90;;;;;;;18.44;100.00;101635.03;5013028;28;20173;-90
2022/07/21 08:23:14;;;;;;;11.07;8.30;;;;;;;18.45;100.00;101639.31;5012992;28;20501;-90
2022/07/21 08:25:41;;;;;;;14.05;8.95;;;;;;;18.35;100.00;101642.19;5010570;28;20494;-90
2022/07/21 08:28:08;;;;;;;8.70;7.75;;;;;;;18.38;100.00;101649.75;5013612;28;20101;-90
2022/07/21 08:30:33;;;;;;;9.90;7.67;;;;;;;18.36;100.00;101639.16;5012336;28;20030;-90
2022/07/21 08:33:00;;;;;;;8.97;6.93;;;;;;;18.28;100.00;101635.19;5012833;28;20659;-89
2022/07/21 08:35:25;;;;;;;8.63;7.45;;;;;;;18.23;100.00;101638.00;5005733;28;20030;-89
2022/07/21 08:37:56;;;;;;;8.33;7.00;;;;;;;18.33;100.00;101636.22;4989720;28;20045;-90
2022/07/21 08:40:26;;;;;;;8.48;6.72;;;;;;;18.37;100.00;101638.06;4996379;28;20033;-90
2022/07/21 08:42:53;;;;;;;8.57;7.00;;;;;;;18.41;100.00;101643.75;5018136;28;20164;-90
2022/07/21 08:45:18;;;;;;;9.98;7.35;;;;;;;18.51;100.00;101638.16;5008799;28;20374;-89
2022/07/21 08:47:44;;;;;;;8.70;6.22;;;;;;;18.55;100.00;101649.22;5031088;28;20029;-90
2022/07/21 08:50:09;;;;;;;7.40;6.03;;;;;;;18.55;100.00;101650.06;5023051;28;20171;-89
2022/07/21 08:52:35;;;;;;;7.47;5.77;;;;;;;18.59;100.00;101642.94;5013196;28;20079;-90
2022/07/21 08:55:01;;;;;;;10.35;6.30;;;;;;;18.53;100.00;101646.81;5011759;28;20113;-88
2022/07/21 08:57:26;;;;;;;7.97;6.20;;;;;;;18.48;100.00;101638.75;5000337;28;20033;-90
2022/07/21 08:59:52;;;;;;;7.85;6.47;;;;;;;18.57;100.00;101652.47;5009156;28;20040;-90
2022/07/21 09:02:31;;;;;;;8.13;6.20;;;;;;;18.57;100.00;101644.31;5020128;28;20029;-90
2022/07/21 09:04:57;;;;;;;8.93;6.32;;;;;;;18.54;100.00;101643.00;5026759;28;20029;-91
2022/07/21 09:07:23;;;;;;;10.40;7.50;;;;;;;18.45;100.00;101642.03;5026040;28;20025;-91
2022/07/21 09:09:58;;;;;;;8.32;7.45;;;;;;;18.46;100.00;101647.19;5029240;28;20120;-92
2022/07/21 09:12:25;;;;;;;9.05;7.47;;;;;;;18.61;100.00;101643.47;5028029;28;20018;-91
2022/07/21 09:14:50;;;;;;;9.00;7.55;;;;;;;18.68;100.00;101651.25;5041838;28;20041;-91
2022/07/21 09:17:17;;;;;;;12.20;9.00;;;;;;;18.71;100.00;101653.38;5028110;28;20061;-91
2022/07/21 09:19:46;;;;;;;8.85;7.93;;;;;;;18.69;100.00;101654.75;5012599;28;20502;-91
2022/07/21 09:22:16;;;;;;;12.10;9.52;;;;;;;18.71;100.00;101656.09;5009059;28;20068;-91
2022/07/21 09:24:48;;;;;;;10.35;8.88;;;;;;;18.76;100.00;101647.84;5005368;28;20022;-91
2022/07/21 09:27:15;;;;;;;12.43;10.17;;;;;;;19.01;100.00;101661.38;5008865;28;20156;-92
2022/07/21 09:30:10;;;;;;;14.03;9.73;;;;;;;19.14;100.00;101659.81;5012777;28;20392;-91
2022/07/21 09:32:37;;;;;;;10.75;8.45;;;;;;;19.10;100.00;101670.50;4988578;28;20548;-95
2022/07/21 09:35:05;;;;;;;11.88;8.75;;;;;;;19.12;100.00;101671.00;5005713;28;20478;-91
2022/07/21 09:37:35;;;;;;;11.00;8.43;;;;;;;19.03;100.00;101665.44;5011549;28;20032;-93
2022/07/21 09:40:19;;;;;;;10.75;8.35;;;;;;;18.95;100.00;101663.38;5012414;28;20113;-93
2022/07/21 09:42:51;;;;;;;11.82;7.88;;;;;;;19.02;100.00;101663.81;5016085;28;20496;-93
2022/07/21 09:45:26;;;;;;;8.65;7.72;;;;;;;19.08;100.00;101667.25;4992369;28;20038;-94
2022/07/21 09:48:26;;;;;;;10.90;8.05;;;;;;;19.00;100.00;101667.91;4995025;28;20030;-93
2022/07/21 09:50:54;;;;;;;8.80;7.70;;;;;;;18.92;100.00;101669.34;5009947;28;20049;-94
2022/07/21 09:54:17;;;;;;;;;;;;;;;;;;;;;
2022/07/21 09:57:48;;;;;;;7.50;6.80;;;;;;;18.96;100.00;101683.19;5006672;28;20296;-95
2022/07/21 10:00:23;;;;;;;6.68;5.97;;;;;;;18.91;100.00;101684.84;4958381;28;20588;-93
2022/07/21 10:03:17;;;;;;;6.22;5.60;;;;;;;18.75;100.00;101675.31;5010947;28;20030;-92
2022/07/21 10:05:42;;;;;;;7.80;5.65;;;;;;;18.66;100.00;101679.75;4982262;28;20049;-88
2022/07/21 10:08:08;;;;;;;6.63;4.40;;;;;;;18.44;100.00;101673.00;5008016;28;20022;-92
2022/07/21 10:10:34;;;;;;;6.22;4.70;;;;;;;18.36;100.00;101674.44;4993456;28;20527;-94
2022/07/21 10:14:49;;;;;;;;;;;;;;;;;;;;;
2022/07/21 11:30:36;;;;;;;9.57;7.32;;;;;;;18.29;100.00;101742.59;5052009;28;20478;-92
2022/07/21 11:37:38;;;;;;;9.32;7.15;;;;;;;17.98;100.00;101759.19;4876317;29;20053;-94
2022/07/21 11:50:16;;;;;;;12.00;7.70;;;;;;;17.68;100.00;101752.94;5001965;28;20400;-92
2022/07/21 11:53:06;;;;;;;12.90;8.37;;;;;;;17.75;100.00;101765.31;5013841;28;20460;-93
2022/07/21 13:45:35;;;;;;;9.40;5.60;;;;;;;18.41;100.00;101791.03;5489009;23;20992;-91
2022/07/21 13:48:25;;;;;;;7.63;4.65;;;;;;;18.56;100.00;101806.38;5028855;28;20021;-92
2022/07/21 13:50:51;;;;;;;5.07;4.43;;;;;;;18.46;100.00;101787.47;5030453;28;20026;-91
2022/07/21 14:47:30;;;;;;;14.43;10.68;;;;;;;18.26;100.00;101827.28;4988392;28;20197;-89
2022/07/21 14:49:55;;;;;;;16.30;11.35;;;;;;;18.25;100.00;101820.25;4989797;28;20030;-89
2022/07/21 14:52:23;;;;;;;16.27;11.10;;;;;;;18.21;100.00;101827.34;4973024;28;20485;-89
2022/07/21 14:55:26;;;;;;;14.98;11.23;;;;;;;18.07;100.00;101818.25;4991616;28;20035;-90
2022/07/21 14:57:52;;;;;;;16.15;12.10;;;;;;;18.29;100.00;101832.13;4994490;28;20093;-89
2022/07/21 15:00:33;;;;;;;17.88;13.05;;;;;;;18.31;100.00;101826.44;4993140;28;20026;-89
2022/07/21 15:03:03;;;;;;;18.53;12.73;;;;;;;18.37;100.00;101821.75;4994787;28;20482;-89
2022/07/21 15:05:28;;;;;;;18.25;12.75;;;;;;;18.38;100.00;101826.88;4993487;28;20026;-88
2022/07/21 15:07:54;;;;;;;16.75;12.10;;;;;;;18.30;100.00;101822.91;4994516;28;20105;-89
2022/07/21 15:10:22;;;;;;;15.77;11.37;;;;;;;18.12;100.00;101827.16;4993632;28;20121;-89
2022/07/21 15:13:11;;;;;;;15.20;11.32;;;;;;;18.08;100.00;101836.94;4994572;28;20030;-89
2022/07/21 15:15:44;;;;;;;13.67;10.73;;;;;;;18.07;100.00;101843.44;4992969;28;20030;-89
2022/07/21 15:18:25;;;;;;;17.07;10.93;;;;;;;17.94;100.00;101834.03;4988890;28;20312;-89
2022/07/21 15:21:08;;;;;;;17.73;11.15;;;;;;;17.88;100.00;101835.19;4977813;28;20045;-89
2022/07/21 15:27:48;;;;;;;16.75;11.57;;;;;;;17.95;100.00;101835.66;4840046;29;20030;-89
2022/07/21 15:30:50;;;;;;;16.48;11.60;;;;;;;17.97;100.00;101832.66;4838759;29;20058;-89
2022/07/21 15:33:47;;;;;;;15.43;11.30;;;;;;;17.99;100.00;101827.78;4895348;29;20032;-90
2022/07/21 15:36:29;;;;;;;17.17;11.15;;;;;;;17.96;100.00;101831.06;4887130;29;20083;-90